AirNav   Air Wisconsin pilot careers
 
 538 users online  

3AL7 Flowers Field Airport
Thomaston, Alabama, USA

GOING TO THOMASTON?


FAA INFORMATION EFFECTIVE 31 JANUARY 2019

Location

FAA Identifier: 3AL7
Lat/Long: 32-17-06.0000N / 087-31-12.0000W
32-17.100000N / 087-31.200000W
32.2850000 / -87.5200000
(estimated)
Elevation: 280 ft. / 85 m (estimated)
Variation: 00W (1995)
From city: 5 miles E of THOMASTON, AL
Time zone: UTC -6 (UTC -5 during Daylight Saving Time)
Zip code: 36773

Airport Operations

Airport use: Private use. Permission required prior to landing
Activation date: 02/1999
Control tower: no
ARTCC: ATLANTA CENTER
FSS: ANNISTON FLIGHT SERVICE STATION
Attendance: UNATNDD
Segmented circle: no

Airport Communications

WX AWOS-3P at A08 (15 nm NE): 119.350 (334-683-4423)

Airport Services

Runway Information

Runway 12/30

Dimensions: 2000 x 60 ft. / 610 x 18 m
Surface: turf
RUNWAY 12  RUNWAY 30
Traffic pattern: leftleft
Obstructions: none75 ft. trees, 150 ft. from runway

Airport Ownership and Management from official FAA records

Ownership: Privately-owned
Owner: DANIEL E. FLOWERS
1525 MARENGO COUNTY ROAD 38
CATHERINE, AL 36728
Phone 334-627-3730
Manager: DANIEL E. FLOWERS
1525 MARENGO COUNTY ROAD 38
CATHERINE, AL 36728
Phone 334-627-3730

Instrument Procedures

There are no published instrument procedures at 3AL7.

Some nearby airports with instrument procedures:

A08 - Vaiden Field Airport (15 nm NE)
61A - Camden Municipal Airport (20 nm SE)
KDYA - Demopolis Regional Airport (24 nm NW)
KSEM - Craig Field Airport (27 nm E)
09A - Butler-Choctaw County Airport (32 nm W)
 
Loc | Ops | Rwys | IFR | FBO | Links
Com | Nav | Svcs | Stats | Notes
Area around 3AL7 (Flowers Field Airport)
 
Road maps at: MapQuest Bing Google
 
Aerial photo
No photo
 
Sectional chart

 
Airport distance calculator
Flying to Flowers Field Airport? Find the distance to fly.

From to 3AL7

Sunrise and sunset
Times for 22-Feb-2019
 Local
(UTC-6)
 Zulu
(UTC)
Morning civil twilight06:0212:02
Sunrise06:2712:27
Sunset17:4123:41
Evening civil twilight18:0600:06

Current date and time
Zulu (UTC)  23-Feb-2019 05:44:17
Local (UTC-6)  22-Feb-2019 23:44:17
 
METAR
KA08 
15nm NE 
230535Z AUTO 17006KT 10SM OVC014 19/19 A3005 RMK AO2 T01900190
KDYA 
24nm NW 
230535Z AUTO 12006KT 7SM BKN006 OVC009 A3003 RMK AO2
KSEM 
27nm E 
230535Z AUTO 16007KT 10SM 20/19 A3006 RMK AO2
TAF
NOTAMs
Click for the latest NOTAMs
NOTAMs are issued by the DoD/FAA and will open in a separate window not controlled by AirNav.

 

 
 

Would you like to see your business listed on this page?

 If your business provides an interesting product or service to pilots, flight crews, aircraft, or users of the Flowers Field Airport, you should consider listing it here.  To start the listing process, click on the button below
 
Add a business
 

Other Pages about Flowers Field Airport

Update a link
 
Copyright © AirNav, LLC. All rights reserved. Privacy Policy  Contact